createdAt,value
2023-04-29T00:01:40.179Z,79.97
2023-04-29T00:04:07.056Z,80.91
2023-04-29T00:06:33.967Z,80.48
2023-04-29T00:09:00.565Z,79.62
2023-04-29T00:11:27.309Z,80.73
2023-04-29T00:13:53.907Z,81.96
2023-04-29T00:16:20.557Z,81.72
2023-04-29T00:18:47.239Z,81.60
2023-04-29T00:21:13.877Z,80.34
2023-04-29T00:23:40.658Z,79.94
2023-04-29T00:26:07.296Z,81.23
2023-04-29T00:28:34.111Z,78.89
2023-04-29T00:31:00.773Z,79.84
2023-04-29T00:33:27.432Z,79.25
2023-04-29T00:35:54.060Z,79.07
2023-04-29T00:38:20.681Z,78.58
2023-04-29T00:40:47.467Z,76.86
2023-04-29T00:43:14.242Z,72.78
2023-04-29T00:45:40.919Z,74.57
2023-04-29T00:48:08.024Z,74.15
2023-04-29T00:50:34.943Z,73.79
2023-04-29T00:53:01.650Z,74.27
2023-04-29T00:55:29.040Z,74.03
2023-04-29T00:57:57.315Z,73.82
2023-04-29T01:00:24.077Z,74.25
2023-04-29T01:02:51.198Z,74.31
2023-04-29T01:05:18.093Z,71.84
2023-04-29T01:08:05.811Z,69.38
2023-04-29T01:10:41.975Z,71.91
2023-04-29T01:13:29.688Z,67.34
2023-04-29T01:16:04.892Z,69.06
2023-04-29T01:18:42.129Z,70.83
2023-04-29T01:21:08.773Z,70.28
2023-04-29T01:23:35.395Z,71.36
2023-04-29T01:26:02.273Z,71.48
2023-04-29T01:28:47.317Z,68.03
2023-04-29T01:31:28.355Z,66.51
2023-04-29T01:34:19.986Z,67.69
2023-04-29T01:36:58.625Z,70.39
2023-04-29T01:40:07.046Z,70.29
2023-04-29T01:42:42.952Z,67.83
2023-04-29T01:45:11.881Z,68.34
2023-04-29T01:47:39.367Z,68.99
2023-04-29T01:50:06.602Z,69.41
2023-04-29T01:52:33.296Z,69.24
2023-04-29T01:54:59.978Z,70.60
2023-04-29T01:57:26.606Z,73.12
2023-04-29T01:59:53.431Z,73.28
2023-04-29T02:02:20.210Z,70.86
2023-04-29T02:04:47.307Z,73.04
2023-04-29T02:07:14.077Z,73.35
2023-04-29T02:09:40.777Z,74.02
2023-04-29T02:12:07.422Z,72.89
2023-04-29T02:14:35.044Z,74.00
2023-04-29T02:17:03.488Z,74.90
2023-04-29T02:19:30.213Z,72.59
2023-04-29T02:21:56.892Z,72.55
2023-04-29T02:24:23.588Z,72.63
2023-04-29T02:26:50.327Z,71.54
2023-04-29T02:29:17.030Z,71.10
2023-04-29T02:31:43.714Z,72.66
2023-04-29T02:34:10.410Z,68.98
2023-04-29T02:36:37.012Z,69.97
2023-04-29T02:39:03.626Z,69.16
2023-04-29T02:41:30.295Z,69.93
2023-04-29T02:44:00.063Z,70.25
2023-04-29T02:46:27.032Z,72.39
2023-04-29T02:48:55.227Z,71.39
2023-04-29T02:51:21.914Z,71.36
2023-04-29T02:53:48.754Z,69.79
2023-04-29T02:56:15.403Z,71.36
2023-04-29T02:58:42.044Z,70.45
2023-04-29T03:01:08.702Z,70.39
2023-04-29T03:03:35.450Z,71.92
2023-04-29T03:06:02.205Z,70.03
2023-04-29T03:08:29.007Z,71.15
2023-04-29T03:10:55.596Z,70.41
2023-04-29T03:13:22.377Z,70.10
2023-04-29T03:15:49.145Z,70.58
2023-04-29T03:18:15.813Z,67.67
2023-04-29T03:20:42.644Z,70.28
2023-04-29T03:23:09.295Z,71.88
2023-04-29T03:25:35.946Z,70.09
2023-04-29T03:28:02.663Z,70.90
2023-04-29T03:30:29.358Z,70.82
2023-04-29T03:32:56.085Z,69.75
2023-04-29T03:35:22.747Z,71.10
2023-04-29T03:37:49.457Z,70.58
2023-04-29T03:40:16.244Z,69.45
2023-04-29T03:42:43.026Z,68.19
2023-04-29T03:45:10.412Z,67.45
2023-04-29T03:47:37.148Z,68.94
2023-04-29T03:50:04.187Z,66.81
2023-04-29T03:52:30.963Z,69.03
2023-04-29T03:54:57.660Z,69.46
2023-04-29T03:57:24.245Z,71.57
2023-04-29T03:59:51.260Z,71.62
2023-04-29T04:02:18.372Z,72.15
2023-04-29T04:04:45.671Z,70.21
2023-04-29T04:07:12.762Z,69.77
2023-04-29T04:09:39.385Z,69.86
2023-04-29T04:12:06.743Z,70.82
2023-04-29T04:14:33.475Z,70.45
2023-04-29T04:17:00.504Z,69.78
2023-04-29T04:19:27.182Z,70.59
2023-04-29T04:21:53.780Z,70.33
2023-04-29T04:24:20.643Z,71.09
2023-04-29T04:26:47.278Z,69.87
2023-04-29T04:29:14.053Z,72.03
2023-04-29T04:31:40.679Z,71.33
2023-04-29T04:34:07.408Z,71.84
2023-04-29T04:36:34.129Z,72.92
2023-04-29T04:39:00.822Z,75.90
2023-04-29T04:41:27.422Z,77.84
2023-04-29T04:43:54.033Z,78.92
2023-04-29T04:46:22.615Z,80.86
2023-04-29T04:48:49.413Z,82.67
2023-04-29T04:51:16.055Z,82.95
2023-04-29T04:53:42.723Z,83.10
2023-04-29T04:56:09.378Z,83.23
2023-04-29T04:58:36.013Z,84.64
2023-04-29T05:01:02.699Z,84.32
2023-04-29T05:03:29.496Z,84.76
2023-04-29T05:05:57.697Z,81.40
2023-04-29T05:08:25.600Z,81.93
2023-04-29T05:10:54.157Z,82.12
2023-04-29T05:13:21.337Z,82.55
2023-04-29T05:15:47.970Z,83.39
2023-04-29T05:18:14.619Z,83.29
2023-04-29T05:20:41.369Z,84.09
2023-04-29T05:23:08.046Z,82.87
2023-04-29T05:25:34.945Z,76.83
2023-04-29T05:28:03.282Z,78.48
2023-04-29T05:30:30.087Z,79.89
2023-04-29T05:32:56.893Z,79.21
2023-04-29T05:35:23.609Z,74.70
2023-04-29T05:37:50.394Z,74.11
2023-04-29T05:40:17.164Z,74.08
2023-04-29T05:42:43.766Z,71.61
2023-04-29T05:45:10.768Z,75.83
2023-04-29T05:47:37.746Z,76.34
2023-04-29T05:50:04.923Z,75.34
2023-04-29T05:52:31.569Z,73.63
2023-04-29T05:54:58.212Z,75.24
2023-04-29T05:57:24.852Z,75.23
2023-04-29T05:59:53.858Z,75.89
2023-04-29T06:02:21.286Z,77.91
2023-04-29T06:04:48.205Z,77.70
2023-04-29T06:07:15.404Z,76.53
2023-04-29T06:09:42.155Z,77.25
2023-04-29T06:12:08.756Z,77.08
2023-04-29T06:14:37.694Z,74.34
2023-04-29T06:17:04.436Z,74.75
2023-04-29T06:19:31.177Z,75.70
2023-04-29T06:21:57.778Z,71.85
2023-04-29T06:24:24.546Z,66.20
2023-04-29T06:26:51.460Z,71.63
2023-04-29T06:29:18.143Z,64.84
2023-04-29T06:31:44.769Z,71.52
2023-04-29T06:34:11.518Z,66.67
2023-04-29T06:36:38.154Z,69.39
2023-04-29T06:39:05.153Z,71.13
2023-04-29T06:41:32.880Z,72.18
2023-04-29T06:43:59.479Z,70.83
2023-04-29T06:46:26.176Z,69.32
2023-04-29T06:48:52.963Z,71.64
2023-04-29T06:51:19.638Z,70.96
2023-04-29T06:53:46.268Z,70.64
2023-04-29T06:56:12.971Z,68.96
2023-04-29T06:58:39.635Z,72.04
2023-04-29T07:01:06.380Z,66.27
2023-04-29T07:03:33.109Z,68.77
2023-04-29T07:05:59.785Z,70.10
2023-04-29T07:08:26.427Z,66.23
2023-04-29T07:10:57.115Z,67.17
2023-04-29T07:13:24.870Z,69.17
2023-04-29T07:15:51.852Z,70.71
2023-04-29T07:18:18.528Z,66.96
2023-04-29T07:20:45.257Z,70.21
2023-04-29T07:23:11.939Z,66.75
2023-04-29T07:25:38.603Z,69.64
2023-04-29T07:28:05.382Z,65.11
2023-04-29T07:30:32.195Z,67.37
2023-04-29T07:32:58.816Z,67.53
2023-04-29T07:35:25.639Z,68.51
2023-04-29T07:37:52.395Z,66.72
2023-04-29T07:40:19.089Z,68.22
2023-04-29T07:42:45.772Z,67.56
2023-04-29T07:45:12.510Z,66.68
2023-04-29T07:47:39.623Z,66.63
2023-04-29T07:50:06.680Z,67.39
2023-04-29T07:52:34.718Z,69.35
2023-04-29T07:55:01.665Z,66.63
2023-04-29T07:57:28.303Z,68.74
2023-04-29T07:59:55.030Z,68.44
2023-04-29T08:02:21.992Z,66.82
2023-04-29T08:04:49.309Z,65.54
2023-04-29T08:07:16.199Z,65.01
2023-04-29T08:09:42.845Z,64.21
2023-04-29T08:12:09.613Z,61.81
2023-04-29T08:14:36.268Z,62.71
2023-04-29T08:17:02.914Z,62.52
2023-04-29T08:19:29.728Z,61.81
2023-04-29T08:21:56.477Z,65.13
2023-04-29T08:24:23.181Z,66.58
2023-04-29T08:26:49.843Z,63.17
2023-04-29T08:29:16.486Z,59.95
2023-04-29T08:31:43.232Z,58.39
2023-04-29T08:34:09.941Z,62.04
2023-04-29T08:36:36.583Z,59.00
2023-04-29T08:39:03.527Z,58.14
2023-04-29T08:41:32.418Z,61.03
2023-04-29T08:44:02.135Z,59.49
2023-04-29T08:46:29.570Z,56.82
2023-04-29T08:48:56.919Z,60.01
2023-04-29T08:51:23.597Z,60.41
2023-04-29T08:53:50.515Z,58.60
2023-04-29T08:56:18.311Z,56.10
2023-04-29T08:58:45.340Z,58.90
2023-04-29T09:01:13.594Z,55.96
2023-04-29T09:03:50.417Z,54.46
2023-04-29T09:06:18.137Z,56.07
2023-04-29T09:08:45.156Z,57.77
2023-04-29T09:11:12.883Z,54.43
2023-04-29T09:13:39.773Z,52.81
2023-04-29T09:16:11.683Z,50.89
2023-04-29T09:18:43.325Z,50.76
2023-04-29T09:21:29.144Z,51.68
2023-04-29T09:24:00.900Z,50.46
2023-04-29T09:26:28.291Z,49.22
2023-04-29T09:29:12.379Z,49.19
2023-04-29T09:31:39.409Z,50.37
2023-04-29T09:34:06.432Z,54.26
2023-04-29T09:36:36.678Z,52.18
2023-04-29T09:39:07.777Z,52.07
2023-04-29T09:41:34.473Z,55.10
2023-04-29T09:44:08.854Z,48.06
2023-04-29T09:46:36.904Z,52.34
2023-04-29T09:49:04.184Z,51.49
2023-04-29T09:51:31.244Z,49.68
2023-04-29T09:53:59.847Z,50.52
2023-04-29T09:56:29.102Z,48.09
2023-04-29T09:58:57.503Z,49.65
2023-04-29T10:01:27.835Z,49.09
2023-04-29T10:03:55.405Z,49.91
2023-04-29T10:06:23.178Z,47.91
2023-04-29T10:08:50.638Z,51.42
2023-04-29T10:11:17.729Z,52.18
2023-04-29T10:13:44.982Z,48.46
2023-04-29T10:16:16.126Z,45.46
2023-04-29T10:18:49.899Z,48.65
2023-04-29T10:21:18.793Z,50.98
2023-04-29T10:23:45.863Z,44.04
2023-04-29T10:26:14.637Z,48.06
2023-04-29T10:28:43.891Z,47.55
2023-04-29T10:31:11.146Z,46.81
2023-04-29T10:33:40.800Z,47.13
2023-04-29T10:36:08.017Z,47.22
2023-04-29T10:38:42.809Z,46.31
2023-04-29T10:41:17.215Z,48.12
2023-04-29T10:43:44.010Z,45.67
2023-04-29T10:46:16.610Z,46.51
2023-04-29T10:48:48.355Z,47.40
2023-04-29T10:51:44.439Z,46.78
2023-04-29T10:54:17.333Z,47.45
2023-04-29T10:56:48.369Z,46.44
2023-04-29T10:59:36.837Z,44.47
2023-04-29T11:02:03.681Z,47.23
2023-04-29T11:04:31.450Z,42.01
2023-04-29T11:06:58.461Z,44.04
2023-04-29T11:09:27.918Z,45.79
2023-04-29T11:12:02.388Z,46.30
2023-04-29T11:14:42.028Z,47.70
2023-04-29T11:17:08.669Z,40.23
2023-04-29T11:19:37.490Z,46.28
2023-04-29T11:22:09.573Z,46.82
2023-04-29T11:24:36.351Z,43.80
2023-04-29T11:27:03.441Z,46.97
2023-04-29T11:29:31.664Z,44.48
2023-04-29T11:32:00.063Z,44.57
2023-04-29T11:34:26.861Z,43.37
2023-04-29T11:36:53.968Z,45.60
2023-04-29T11:39:20.676Z,45.84
2023-04-29T11:41:52.434Z,45.00
2023-04-29T11:44:22.491Z,43.85
2023-04-29T11:46:49.306Z,43.69
2023-04-29T11:49:15.975Z,47.32
2023-04-29T11:51:42.676Z,47.13
2023-04-29T11:54:09.366Z,47.25
2023-04-29T11:56:38.156Z,45.41
2023-04-29T11:59:05.195Z,44.72
2023-04-29T12:01:31.937Z,46.64
2023-04-29T12:03:58.959Z,43.96
2023-04-29T12:06:29.716Z,43.46
2023-04-29T12:08:59.305Z,46.11
2023-04-29T12:11:26.196Z,43.55
2023-04-29T12:13:53.132Z,45.82
2023-04-29T12:16:19.855Z,45.61
2023-04-29T12:18:46.811Z,44.10
2023-04-29T12:21:13.672Z,44.17
2023-04-29T12:23:41.434Z,41.09
2023-04-29T12:26:08.810Z,42.51
2023-04-29T12:28:35.489Z,43.64
2023-04-29T12:31:02.187Z,39.41
2023-04-29T12:33:29.982Z,43.21
2023-04-29T12:35:58.392Z,45.14
2023-04-29T12:38:34.931Z,41.46
2023-04-29T12:41:01.852Z,45.64
2023-04-29T12:43:29.727Z,40.94
2023-04-29T12:46:10.453Z,40.10
2023-04-29T12:48:38.248Z,39.65
2023-04-29T12:51:05.833Z,42.73
2023-04-29T12:53:32.558Z,41.60
2023-04-29T12:55:59.346Z,41.78
2023-04-29T12:58:29.716Z,40.97
2023-04-29T13:00:56.864Z,38.00
2023-04-29T13:03:23.974Z,40.45
2023-04-29T13:05:50.931Z,42.38
2023-04-29T13:08:17.555Z,42.39
2023-04-29T13:10:44.452Z,43.29
2023-04-29T13:13:11.129Z,39.19
2023-04-29T13:15:37.901Z,44.73
2023-04-29T13:18:04.998Z,43.09
2023-04-29T13:20:31.861Z,42.43
2023-04-29T13:22:58.583Z,38.01
2023-04-29T13:25:25.294Z,39.40
2023-04-29T13:27:52.060Z,39.20
2023-04-29T13:30:18.798Z,41.28
2023-04-29T13:32:51.630Z,42.38
2023-04-29T13:35:20.298Z,39.46
2023-04-29T13:37:46.939Z,40.15
2023-04-29T13:40:20.217Z,39.12
2023-04-29T13:42:50.469Z,40.00
2023-04-29T13:45:19.919Z,38.43
2023-04-29T13:48:05.761Z,39.21
2023-04-29T13:53:35.886Z,38.32
2023-04-29T13:56:47.595Z,39.88
2023-04-29T14:01:26.113Z,40.82
2023-04-29T14:03:52.831Z,41.01
2023-04-29T14:06:19.593Z,37.33
2023-04-29T14:08:46.237Z,40.57
2023-04-29T14:11:12.851Z,42.24
2023-04-29T14:13:39.505Z,38.89
2023-04-29T14:16:06.526Z,39.64
2023-04-29T14:18:33.322Z,40.70
2023-04-29T14:20:59.945Z,41.38
2023-04-29T14:23:26.552Z,42.25
2023-04-29T14:25:54.658Z,41.81
2023-04-29T14:28:21.616Z,42.01
2023-04-29T14:30:48.247Z,40.46
2023-04-29T14:33:14.913Z,37.25
2023-04-29T14:35:41.512Z,38.21
2023-04-29T14:38:08.212Z,38.58
2023-04-29T14:40:34.858Z,40.25
2023-04-29T14:43:01.475Z,41.33
2023-04-29T14:45:28.247Z,42.74
2023-04-29T14:47:55.017Z,42.10
2023-04-29T14:50:21.847Z,44.42
2023-04-29T14:52:48.448Z,42.20
2023-04-29T14:55:15.131Z,43.09
2023-04-29T14:57:41.746Z,42.72
2023-04-29T15:00:09.143Z,41.19
2023-04-29T15:02:35.908Z,42.77
2023-04-29T15:05:02.602Z,42.14
2023-04-29T15:07:31.584Z,42.24
2023-04-29T15:09:58.454Z,41.31
2023-04-29T15:12:25.050Z,41.82
2023-04-29T15:14:52.297Z,42.56
2023-04-29T15:17:19.251Z,43.64
2023-04-29T15:19:45.894Z,41.91
2023-04-29T15:22:12.589Z,40.83
2023-04-29T15:24:39.218Z,39.50
2023-04-29T15:27:05.981Z,39.44
2023-04-29T15:29:32.632Z,40.95
2023-04-29T15:31:59.304Z,39.01
2023-04-29T15:34:26.015Z,39.15
2023-04-29T15:36:52.821Z,38.78
2023-04-29T15:39:19.400Z,40.69
2023-04-29T15:41:46.038Z,40.64
2023-04-29T15:44:12.709Z,41.01
2023-04-29T15:46:39.400Z,41.60
2023-04-29T15:49:06.142Z,41.77
2023-04-29T15:51:32.990Z,43.21
2023-04-29T15:53:59.665Z,41.15
2023-04-29T15:56:26.241Z,40.59
2023-04-29T15:58:52.869Z,42.02
2023-04-29T16:01:19.900Z,42.10
2023-04-29T16:03:46.681Z,43.71
2023-04-29T16:06:13.421Z,43.22
2023-04-29T16:08:40.116Z,40.15
2023-04-29T16:11:06.944Z,41.15
2023-04-29T16:13:36.200Z,39.52
2023-04-29T16:16:03.219Z,38.76
2023-04-29T16:18:29.850Z,40.09
2023-04-29T16:20:56.718Z,38.92
2023-04-29T16:23:23.413Z,39.72
2023-04-29T16:25:50.217Z,39.27
2023-04-29T16:28:16.881Z,38.82
2023-04-29T16:30:43.641Z,38.89
2023-04-29T16:33:10.234Z,40.44
2023-04-29T16:35:36.964Z,40.15
2023-04-29T16:38:03.829Z,41.93
2023-04-29T16:40:30.425Z,41.35
2023-04-29T16:42:57.027Z,42.61
2023-04-29T16:45:24.560Z,42.25
2023-04-29T16:47:51.426Z,42.30
2023-04-29T16:50:18.247Z,42.88
2023-04-29T16:52:44.985Z,43.81
2023-04-29T16:55:14.782Z,42.98
2023-04-29T16:57:41.464Z,45.35
2023-04-29T17:00:08.685Z,45.90
2023-04-29T17:02:35.582Z,46.36
2023-04-29T17:05:02.312Z,44.94
2023-04-29T17:07:29.190Z,44.22
2023-04-29T17:09:56.222Z,45.59
2023-04-29T17:12:23.133Z,43.80
2023-04-29T17:14:49.783Z,42.76
2023-04-29T17:17:16.421Z,43.41
2023-04-29T17:19:43.090Z,45.37
2023-04-29T17:22:09.734Z,45.38
2023-04-29T17:24:37.331Z,45.03
2023-04-29T17:27:03.976Z,44.44
2023-04-29T17:29:30.553Z,44.78
2023-04-29T17:31:57.254Z,46.02
2023-04-29T17:34:24.084Z,47.20
2023-04-29T17:36:52.680Z,46.73
2023-04-29T17:39:19.879Z,47.03
2023-04-29T17:41:46.529Z,48.51
2023-04-29T17:44:13.239Z,49.50
2023-04-29T17:46:40.402Z,49.67
2023-04-29T17:49:07.000Z,50.65
2023-04-29T17:51:33.625Z,51.21
2023-04-29T17:54:03.713Z,51.73
2023-04-29T17:56:30.402Z,50.98
2023-04-29T17:58:56.993Z,52.48
2023-04-29T18:01:24.102Z,52.37
2023-04-29T18:03:51.023Z,51.66
2023-04-29T18:06:18.052Z,50.76
2023-04-29T18:08:45.767Z,52.49
2023-04-29T18:11:12.426Z,52.32
2023-04-29T18:13:39.700Z,51.87
2023-04-29T18:16:07.423Z,51.29
2023-04-29T18:18:34.293Z,52.48
2023-04-29T18:21:00.941Z,53.03
2023-04-29T18:23:28.053Z,53.36
2023-04-29T18:25:54.747Z,53.32
2023-04-29T18:28:25.251Z,53.46
2023-04-29T18:30:52.649Z,54.11
2023-04-29T18:33:19.392Z,55.04
2023-04-29T18:35:46.143Z,54.71
2023-04-29T18:38:12.970Z,55.78
2023-04-29T18:40:40.528Z,55.65
2023-04-29T18:43:07.291Z,55.75
2023-04-29T18:45:34.015Z,56.92
2023-04-29T18:48:00.842Z,56.29
2023-04-29T18:50:27.506Z,57.24
2023-04-29T18:52:54.276Z,57.69
2023-04-29T18:55:21.044Z,57.46
2023-04-29T18:57:47.669Z,58.30
2023-04-29T19:00:14.560Z,58.08
2023-04-29T19:02:41.231Z,57.80
2023-04-29T19:05:08.507Z,58.41
2023-04-29T19:07:35.163Z,59.30
2023-04-29T19:10:01.966Z,59.51
2023-04-29T19:12:28.692Z,58.47
2023-04-29T19:14:55.335Z,59.08
2023-04-29T19:17:22.095Z,60.04
2023-04-29T19:19:48.797Z,58.61
2023-04-29T19:22:15.767Z,58.86
2023-04-29T19:24:42.429Z,60.56
2023-04-29T19:27:10.029Z,61.07
2023-04-29T19:29:36.707Z,60.57
2023-04-29T19:32:03.692Z,62.27
2023-04-29T19:34:30.428Z,62.65
2023-04-29T19:36:57.033Z,62.66
2023-04-29T19:39:23.656Z,62.46
2023-04-29T19:41:50.243Z,62.73
2023-04-29T19:44:16.874Z,62.74
2023-04-29T19:46:43.631Z,63.65
2023-04-29T19:49:10.343Z,64.60
2023-04-29T19:51:36.945Z,66.03
2023-04-29T19:54:03.681Z,65.23
2023-04-29T19:56:30.283Z,64.30
2023-04-29T19:58:56.917Z,64.75
2023-04-29T20:01:23.635Z,64.62
2023-04-29T20:03:50.385Z,65.27
2023-04-29T20:06:17.276Z,64.97
2023-04-29T20:08:44.255Z,65.41
2023-04-29T20:11:11.114Z,65.28
2023-04-29T20:13:37.813Z,67.09
2023-04-29T20:16:04.675Z,66.47
2023-04-29T20:18:31.304Z,65.27
2023-04-29T20:20:58.121Z,65.85
2023-04-29T20:23:24.763Z,65.36
2023-04-29T20:25:51.463Z,66.26
2023-04-29T20:28:18.085Z,66.38
2023-04-29T20:30:44.735Z,64.85
2023-04-29T20:33:11.434Z,65.80
2023-04-29T20:35:38.134Z,66.63
2023-04-29T20:38:04.924Z,65.89
2023-04-29T20:40:31.547Z,67.05
2023-04-29T20:42:58.179Z,67.11
2023-04-29T20:45:24.927Z,66.54
2023-04-29T20:47:51.578Z,65.16
2023-04-29T20:50:18.297Z,65.19
2023-04-29T20:52:45.205Z,66.38
2023-04-29T20:55:11.973Z,65.07
2023-04-29T20:57:38.740Z,65.54
2023-04-29T21:00:06.121Z,66.69
2023-04-29T21:02:32.800Z,65.87
2023-04-29T21:04:59.634Z,65.67
2023-04-29T21:07:26.469Z,68.23
2023-04-29T21:09:53.245Z,68.96
2023-04-29T21:12:20.127Z,67.82
2023-04-29T21:14:46.788Z,68.22
2023-04-29T21:17:13.644Z,68.42
2023-04-29T21:19:40.478Z,67.15
2023-04-29T21:22:07.152Z,67.96
2023-04-29T21:24:33.861Z,68.62
2023-04-29T21:27:00.524Z,68.77
2023-04-29T21:29:27.144Z,67.83
2023-04-29T21:31:53.862Z,68.23
2023-04-29T21:34:20.569Z,67.93
2023-04-29T21:36:47.331Z,67.48
2023-04-29T21:39:14.079Z,68.51
2023-04-29T21:41:41.618Z,68.68
2023-04-29T21:44:08.375Z,68.18
2023-04-29T21:46:35.832Z,68.61
2023-04-29T21:49:03.308Z,71.51
2023-04-29T21:51:30.004Z,68.56
2023-04-29T21:53:56.616Z,67.87
2023-04-29T21:56:23.314Z,68.54
2023-04-29T21:58:50.166Z,69.40
2023-04-29T22:01:17.164Z,70.08
2023-04-29T22:03:43.860Z,71.93
2023-04-29T22:06:10.552Z,70.10
2023-04-29T22:08:37.236Z,69.70
2023-04-29T22:11:05.940Z,72.84
2023-04-29T22:13:32.657Z,72.42
2023-04-29T22:15:59.346Z,70.54
2023-04-29T22:18:26.002Z,70.68
2023-04-29T22:20:55.766Z,72.40
2023-04-29T22:23:22.368Z,72.30
2023-04-29T22:25:49.044Z,72.32
2023-04-29T22:28:15.825Z,71.45
2023-04-29T22:30:42.631Z,70.60
2023-04-29T22:33:10.013Z,70.47
2023-04-29T22:35:36.715Z,72.19
2023-04-29T22:38:03.368Z,71.89
2023-04-29T22:40:30.098Z,72.41
2023-04-29T22:42:56.838Z,72.69
2023-04-29T22:45:23.474Z,71.55
2023-04-29T22:47:50.183Z,70.84
2023-04-29T22:50:16.861Z,72.40
2023-04-29T22:52:43.482Z,73.99
2023-04-29T22:55:10.214Z,74.25
2023-04-29T22:57:36.912Z,74.57
2023-04-29T23:00:03.879Z,74.76
2023-04-29T23:02:30.483Z,74.20
2023-04-29T23:05:00.869Z,71.71
2023-04-29T23:07:27.583Z,72.41
2023-04-29T23:09:54.414Z,72.48
2023-04-29T23:12:21.499Z,71.23
2023-04-29T23:14:48.125Z,72.11
2023-04-29T23:17:14.783Z,71.96
2023-04-29T23:19:41.503Z,73.54
2023-04-29T23:22:08.519Z,74.13
2023-04-29T23:24:35.227Z,74.94
2023-04-29T23:27:02.386Z,73.81
2023-04-29T23:29:32.460Z,74.77
2023-04-29T23:31:59.181Z,74.83
2023-04-29T23:34:25.863Z,72.79
2023-04-29T23:36:52.577Z,73.74
2023-04-29T23:39:19.161Z,73.66
2023-04-29T23:41:45.825Z,75.18
2023-04-29T23:44:12.523Z,76.05
2023-04-29T23:46:39.453Z,75.93
2023-04-29T23:49:06.157Z,75.23
2023-04-29T23:51:32.902Z,75.66
2023-04-29T23:53:59.539Z,74.95
2023-04-29T23:56:26.350Z,73.97
2023-04-29T23:58:52.931Z,74.53
